Itasca, Texas
Current Conditions -  °F | °C
As of 4:35 AM on Wednesday 22 Oct 2014 (Local Time) from KINJ Reporting Station
Clear Clear  
Wind Chill: 64°   Ceiling: Unl
Heat Index: 64°   Visibility: 10mi
Dew Point: 58°   Wind: 5mph
Humidity: 79%   Direction: 140°SE
Pressure: 30.07"   Gusts: NA
Location:  32.16°N, 97.15°W
Report Text: KINJ 220935Z AUTO 14004KT 10SM CLR 18/14 A3007 RMK AO2 T01780142
Loading
Personal Weather Stations






























Interactive Weather Map
Tropical Storm Tracking
New forecast layout! Learn more

10-Day Weather Forecast

Advertisements
Track Severe Weather on mobile